Time;durP1;ratioP1;P1;durP2;ratioP2;P2;SDS_P1;SDS_P2;PMS_P1;PMS_P2;Temp;Humidity;BMP_temperature;BMP_pressure;BME280_temperature;BME280_humidity;BME280_pressure;Samples;Min_cycle;Max_cycle;Signal;HPM_P1;HPM_P2
2023/10/14 00:01:46;;;;;;;14.93;7.93;;;18.70;99.90;;;;;;5035594;28;20188;-77
2023/10/14 00:04:11;;;;;;;16.77;7.77;;;18.70;99.90;;;;;;5034081;28;20183;-78
2023/10/14 00:06:41;;;;;;;14.93;8.93;;;18.60;99.90;;;;;;5035481;28;20180;-78
2023/10/14 00:09:13;;;;;;;20.37;8.40;;;18.60;99.90;;;;;;5033821;28;20252;-77
2023/10/14 00:11:51;;;;;;;19.23;8.77;;;18.60;99.90;;;;;;5035237;28;20156;-77
2023/10/14 00:14:18;;;;;;;19.57;8.70;;;18.60;99.90;;;;;;5033994;28;20164;-78
2023/10/14 00:16:54;;;;;;;20.97;7.90;;;18.50;99.90;;;;;;5035625;28;20176;-78
2023/10/14 00:19:21;;;;;;;20.20;9.37;;;18.40;99.90;;;;;;5036488;28;20695;-78
2023/10/14 00:21:48;;;;;;;13.37;8.40;;;18.40;99.90;;;;;;5035922;28;20223;-78
2023/10/14 00:24:27;;;;;;;18.07;8.27;;;18.30;99.90;;;;;;5036678;28;20250;-78
2023/10/14 00:27:04;;;;;;;16.77;8.07;;;18.20;99.90;;;;;;5035817;28;20156;-77
2023/10/14 00:29:29;;;;;;;21.47;8.30;;;18.10;99.90;;;;;;5035601;28;20683;-77
2023/10/14 00:31:55;;;;;;;15.10;7.50;;;18.00;99.90;;;;;;5034321;28;20180;-78
2023/10/14 00:34:25;;;;;;;13.53;7.33;;;17.90;99.90;;;;;;5036633;28;20255;-78
2023/10/14 00:36:53;;;;;;;12.47;7.30;;;17.80;99.90;;;;;;5036805;28;20566;-78
2023/10/14 00:39:28;;;;;;;15.23;7.70;;;17.90;99.90;;;;;;5035890;28;20199;-78
2023/10/14 00:41:55;;;;;;;16.73;7.80;;;17.70;99.90;;;;;;5036006;28;20187;-78
2023/10/14 00:44:26;;;;;;;16.03;6.83;;;17.70;99.90;;;;;;5035863;28;20169;-77
2023/10/14 00:46:53;;;;;;;15.17;6.43;;;17.60;99.90;;;;;;5034539;28;20183;-78
2023/10/14 00:49:34;;;;;;;12.53;6.37;;;17.70;99.90;;;;;;5035922;28;20172;-78
2023/10/14 00:52:07;;;;;;;12.60;6.77;;;17.60;99.90;;;;;;5034619;28;20176;-78
2023/10/14 00:57:10;;;;;;;16.10;7.00;;;17.60;99.90;;;;;;5035976;28;20215;-76
2023/10/14 00:59:37;;;;;;;13.03;7.47;;;17.60;99.90;;;;;;5036052;28;20156;-78
2023/10/14 01:02:05;;;;;;;11.40;6.73;;;17.50;99.90;;;;;;5034348;28;20207;-78
2023/10/14 01:04:39;;;;;;;13.03;6.97;;;17.50;99.90;;;;;;5036010;28;20295;-78
2023/10/14 01:07:12;;;;;;;12.40;6.77;;;17.50;99.90;;;;;;5035773;28;20148;-77
2023/10/14 01:14:57;;;;;;;15.03;6.80;;;17.40;99.90;;;;;;5035889;28;20167;-78
2023/10/14 01:17:29;;;;;;;10.47;3.47;;;17.40;99.90;;;;;;5034850;28;20612;-77
2023/10/14 01:19:56;;;;;;;5.33;2.30;;;17.20;99.90;;;;;;5033484;28;20742;-77
2023/10/14 01:22:22;;;;;;;5.87;1.63;;;16.90;99.90;;;;;;5033427;28;20570;-77
2023/10/14 01:24:48;;;;;;;4.37;1.47;;;16.60;99.90;;;;;;5032063;28;20183;-77
2023/10/14 01:27:16;;;;;;;2.40;0.97;;;16.40;99.90;;;;;;5033426;28;20580;-77
2023/10/14 01:29:42;;;;;;;1.90;0.73;;;16.20;99.90;;;;;;5033139;28;20169;-77
2023/10/14 01:35:07;;;;;;;0.60;0.40;;;15.60;99.90;;;;;;5033891;28;20248;-77
2023/10/14 01:37:38;;;;;;;0.73;0.30;;;15.50;99.90;;;;;;5033248;28;20620;-77
2023/10/14 01:40:49;;;;;;;1.27;0.40;;;15.30;99.90;;;;;;5033021;28;20180;-77
2023/10/14 01:42:58;;;;;;;1.30;0.40;;;15.20;99.90;;;;;;5032007;28;20247;-76
2023/10/14 01:45:29;;;;;;;4.07;0.67;;;15.20;99.90;;;;;;5031798;28;20187;-77
2023/10/14 01:50:45;;;;;;;2.00;0.60;;;15.20;99.90;;;;;;5033363;28;20156;-77
2023/10/14 01:53:21;;;;;;;2.80;0.57;;;15.10;99.90;;;;;;5032841;28;20242;-77
2023/10/14 01:55:47;;;;;;;1.27;0.57;;;15.00;99.90;;;;;;5033138;28;20156;-77
2023/10/14 01:58:22;;;;;;;0.83;0.40;;;15.00;99.90;;;;;;5032872;28;20172;-77
2023/10/14 02:00:52;;;;;;;3.97;0.60;;;14.90;99.90;;;;;;5032911;28;20187;-77
2023/10/14 02:03:20;;;;;;;2.10;0.43;;;14.90;99.90;;;;;;5033146;28;20184;-76
2023/10/14 02:05:46;;;;;;;1.37;0.60;;;14.80;99.90;;;;;;5031615;28;20647;-76
2023/10/14 02:08:13;;;;;;;2.00;0.50;;;14.80;99.90;;;;;;5032802;28;20195;-76
2023/10/14 02:10:47;;;;;;;0.83;0.40;;;14.80;99.90;;;;;;5031156;28;20552;-76
2023/10/14 02:13:15;;;;;;;1.93;0.93;;;14.70;99.90;;;;;;5032611;28;20219;-76
2023/10/14 02:15:40;;;;;;;0.90;0.50;;;14.70;99.90;;;;;;5032611;28;20177;-76
2023/10/14 02:18:06;;;;;;;2.50;0.53;;;14.70;99.90;;;;;;5032504;28;20187;-76
2023/10/14 02:20:38;;;;;;;2.07;0.70;;;14.70;99.90;;;;;;5031511;28;20204;-75
2023/10/14 02:23:05;;;;;;;1.83;0.50;;;14.60;99.90;;;;;;5052617;28;20199;-75
2023/10/14 02:25:32;;;;;;;3.77;0.60;;;14.60;99.90;;;;;;5050897;28;20236;-76
2023/10/14 02:27:58;;;;;;;3.90;0.93;;;14.60;99.90;;;;;;5052464;28;20651;-76
2023/10/14 02:30:24;;;;;;;2.90;0.60;;;14.50;99.90;;;;;;5051176;28;20218;-77
2023/10/14 02:32:49;;;;;;;2.87;0.53;;;14.50;99.90;;;;;;5049545;28;20302;-75
2023/10/14 02:35:15;;;;;;;2.50;0.60;;;14.40;99.90;;;;;;5052586;28;20257;-77
2023/10/14 02:37:41;;;;;;;2.87;0.70;;;14.40;99.90;;;;;;5052614;28;20216;-76
2023/10/14 02:40:17;;;;;;;3.37;0.77;;;14.40;99.90;;;;;;5048835;28;20686;-76
2023/10/14 02:42:42;;;;;;;1.63;0.50;;;14.40;99.90;;;;;;5052359;28;20648;-75
2023/10/14 02:45:12;;;;;;;1.60;0.50;;;14.40;99.90;;;;;;5051247;28;20190;-76
2023/10/14 02:47:40;;;;;;;1.03;0.70;;;14.30;99.90;;;;;;5052074;28;20175;-76
2023/10/14 02:50:08;;;;;;;3.07;0.80;;;14.30;99.90;;;;;;5050837;28;20532;-78
2023/10/14 02:52:38;;;;;;;1.40;0.80;;;14.30;99.90;;;;;;5051851;28;20203;-78
2023/10/14 02:55:20;;;;;;;3.00;1.10;;;14.30;99.90;;;;;;5052372;28;20558;-78
2023/10/14 02:57:46;;;;;;;2.50;1.20;;;14.30;99.90;;;;;;5059060;28;20167;-78
2023/10/14 03:00:13;;;;;;;2.83;1.17;;;14.40;99.90;;;;;;5058208;28;20172;-78
2023/10/14 03:03:02;;;;;;;2.80;1.10;;;14.40;99.90;;;;;;5058323;28;20192;-77
2023/10/14 03:05:50;;;;;;;1.97;0.90;;;14.40;99.90;;;;;;5055204;28;20172;-77
2023/10/14 03:08:16;;;;;;;1.87;0.80;;;14.40;99.90;;;;;;5056899;28;20683;-77
2023/10/14 03:10:55;;;;;;;3.13;1.07;;;14.40;99.90;;;;;;5056026;28;20271;-78
2023/10/14 03:13:22;;;;;;;5.43;1.40;;;14.20;99.90;;;;;;5056144;28;20191;-77
2023/10/14 03:15:52;;;;;;;6.87;1.30;;;14.20;99.90;;;;;;5035921;28;20267;-76
2023/10/14 03:18:18;;;;;;;9.43;1.30;;;13.90;99.90;;;;;;5035646;28;20183;-75
2023/10/14 03:23:27;;;;;;;5.80;1.40;;;13.70;99.90;;;;;;5036041;28;20664;-76
2023/10/14 03:25:56;;;;;;;6.73;1.60;;;13.70;99.90;;;;;;5035519;28;20223;-76
2023/10/14 03:28:27;;;;;;;6.10;1.80;;;13.60;99.90;;;;;;5035482;28;20165;-77
2023/10/14 03:30:58;;;;;;;8.37;1.40;;;13.50;99.90;;;;;;5039448;28;20270;-77
2023/10/14 03:33:27;;;;;;;5.10;1.70;;;13.50;99.90;;;;;;5039151;28;20561;-78
2023/10/14 03:35:57;;;;;;;6.83;2.00;;;13.40;99.90;;;;;;5054103;28;20211;-76
2023/10/14 03:38:33;;;;;;;11.77;2.07;;;13.40;99.90;;;;;;5055237;28;20543;-76
2023/10/14 03:41:03;;;;;;;6.90;1.70;;;13.30;99.90;;;;;;5055123;28;20250;-76
2023/10/14 03:46:14;;;;;;;10.00;2.03;;;13.30;99.90;;;;;;5055175;28;20284;-76
2023/10/14 03:48:48;;;;;;;7.43;1.93;;;13.30;99.90;;;;;;5054987;28;20527;-75
2023/10/14 03:51:24;;;;;;;12.43;1.87;;;13.30;99.90;;;;;;5055534;28;20156;-77
2023/10/14 03:53:54;;;;;;;12.83;2.47;;;13.20;99.90;;;;;;5053689;28;20190;-76
2023/10/14 03:56:27;;;;;;;9.13;2.20;;;13.20;99.90;;;;;;5046789;28;20177;-76
2023/10/14 03:58:57;;;;;;;16.17;2.50;;;13.20;99.90;;;;;;5034988;28;20558;-76
2023/10/14 04:01:34;;;;;;;8.20;2.10;;;13.10;99.90;;;;;;5035300;28;20203;-76
2023/10/14 04:04:12;;;;;;;10.40;2.00;;;13.20;99.90;;;;;;5036743;28;20212;-77
2023/10/14 04:06:41;;;;;;;10.03;2.17;;;13.20;99.90;;;;;;5054194;28;20171;-76
2023/10/14 04:09:10;;;;;;;15.10;1.87;;;13.10;99.90;;;;;;5054631;28;20171;-76
2023/10/14 04:11:39;;;;;;;15.60;2.33;;;13.10;99.90;;;;;;5054595;28;20175;-76
2023/10/14 04:14:08;;;;;;;10.80;1.83;;;13.10;99.90;;;;;;5053211;28;20631;-76
2023/10/14 04:21:54;;;;;;;5.87;1.87;;;13.10;99.90;;;;;;5054286;28;20194;-77
2023/10/14 04:26:48;;;;;;;6.50;1.40;;;13.10;99.90;;;;;;5054604;28;20624;-76
2023/10/14 04:29:34;;;;;;;11.60;1.90;;;13.10;99.90;;;;;;5052956;28;20270;-77
2023/10/14 04:32:11;;;;;;;12.63;2.10;;;13.10;99.90;;;;;;5054419;28;20254;-76
2023/10/14 04:34:37;;;;;;;11.47;2.30;;;13.10;99.90;;;;;;5054298;28;20238;-76
2023/10/14 04:37:07;;;;;;;9.63;2.27;;;13.00;99.90;;;;;;5052844;28;20179;-76
2023/10/14 04:39:33;;;;;;;14.37;2.30;;;13.00;99.90;;;;;;5054377;28;20160;-76
2023/10/14 04:42:22;;;;;;;10.27;2.60;;;13.00;99.90;;;;;;5053948;28;20221;-77
2023/10/14 04:44:54;;;;;;;17.03;2.80;;;12.90;99.90;;;;;;5054017;28;20638;-76
2023/10/14 04:47:27;;;;;;;15.53;3.37;;;12.90;99.90;;;;;;5054154;28;20152;-76
2023/10/14 04:49:53;;;;;;;12.03;2.80;;;12.90;99.90;;;;;;5053850;28;20182;-75
2023/10/14 04:52:19;;;;;;;11.03;2.80;;;12.90;99.90;;;;;;5050944;28;20203;-76
2023/10/14 04:54:53;;;;;;;12.07;2.60;;;12.80;99.90;;;;;;5047156;28;20188;-76
2023/10/14 04:57:22;;;;;;;10.70;2.30;;;12.80;99.90;;;;;;5033810;28;20234;-76
2023/10/14 04:59:53;;;;;;;13.03;2.27;;;12.80;99.90;;;;;;5033590;28;20168;-76
2023/10/14 05:02:24;;;;;;;14.77;3.33;;;12.70;99.90;;;;;;5041654;28;20216;-76
2023/10/14 05:04:53;;;;;;;14.10;3.03;;;12.60;99.90;;;;;;5053847;28;20627;-76
2023/10/14 05:07:21;;;;;;;17.60;3.47;;;12.60;99.90;;;;;;5053582;28;20168;-76
2023/10/14 05:09:56;;;;;;;12.27;3.70;;;12.60;99.90;;;;;;5052121;28;20168;-76
2023/10/14 05:12:25;;;;;;;20.77;4.27;;;12.60;99.90;;;;;;5050946;28;20674;-77
2023/10/14 05:14:52;;;;;;;22.83;4.90;;;12.60;99.90;;;;;;5052048;28;20305;-76
2023/10/14 05:17:24;;;;;;;14.17;5.10;;;12.50;99.90;;;;;;5052487;28;20695;-76
2023/10/14 05:19:54;;;;;;;20.20;4.33;;;12.40;99.90;;;;;;5053568;28;20152;-76
2023/10/14 05:22:23;;;;;;;18.87;4.77;;;12.40;99.90;;;;;;5052155;28;20264;-76
2023/10/14 05:24:55;;;;;;;15.13;4.97;;;12.40;99.90;;;;;;5053298;28;20159;-76
2023/10/14 05:27:22;;;;;;;19.73;5.40;;;12.40;99.90;;;;;;5051872;28;20246;-76
2023/10/14 05:29:52;;;;;;;12.03;3.90;;;12.40;99.90;;;;;;5053174;28;20187;-76
2023/10/14 05:32:23;;;;;;;21.87;4.57;;;12.40;99.90;;;;;;5050331;28;20195;-76
2023/10/14 05:34:50;;;;;;;16.10;4.20;;;12.40;99.90;;;;;;5052149;28;20681;-76
2023/10/14 05:37:16;;;;;;;18.13;3.87;;;12.40;99.90;;;;;;5053040;28;20199;-76
2023/10/14 05:39:42;;;;;;;13.37;2.53;;;12.30;99.90;;;;;;5051847;28;20214;-76
2023/10/14 05:42:15;;;;;;;14.97;2.60;;;12.30;99.90;;;;;;5052796;28;20215;-76
2023/10/14 05:44:47;;;;;;;17.53;2.70;;;12.30;99.90;;;;;;5051657;28;20175;-74
2023/10/14 05:47:13;;;;;;;6.10;1.87;;;12.20;99.90;;;;;;5053042;28;20163;-77
2023/10/14 05:49:39;;;;;;;12.10;2.10;;;12.10;99.90;;;;;;5051468;28;20198;-76
2023/10/14 05:52:05;;;;;;;10.97;2.10;;;12.20;99.90;;;;;;5050739;28;20250;-75
2023/10/14 05:54:30;;;;;;;15.60;2.70;;;12.20;99.90;;;;;;5052688;28;20730;-76
2023/10/14 05:56:56;;;;;;;12.63;2.50;;;12.20;99.90;;;;;;5052725;28;20179;-76
2023/10/14 05:59:21;;;;;;;15.70;2.53;;;12.10;99.90;;;;;;5052523;28;20171;-76
2023/10/14 06:01:47;;;;;;;8.07;2.07;;;12.10;99.90;;;;;;5036825;28;20664;-76
2023/10/14 06:04:15;;;;;;;10.30;1.97;;;12.00;99.90;;;;;;5032617;28;20254;-76
2023/10/14 06:06:41;;;;;;;15.47;2.57;;;12.00;99.90;;;;;;5032929;28;20168;-76
2023/10/14 06:09:10;;;;;;;11.77;2.50;;;12.00;99.90;;;;;;5031528;28;20545;-76
2023/10/14 06:11:36;;;;;;;13.80;2.10;;;12.00;99.90;;;;;;5038324;28;20237;-76
2023/10/14 06:14:02;;;;;;;13.53;2.30;;;12.00;99.90;;;;;;5046741;28;20680;-76
2023/10/14 06:16:29;;;;;;;11.73;2.70;;;12.00;99.90;;;;;;5052367;28;20179;-75
2023/10/14 06:18:56;;;;;;;10.13;2.60;;;12.00;99.90;;;;;;5052629;28;20542;-75
2023/10/14 06:21:27;;;;;;;9.27;2.10;;;11.90;99.90;;;;;;5051127;28;20747;-76
2023/10/14 06:23:53;;;;;;;10.73;2.17;;;12.00;99.90;;;;;;5052431;28;20536;-75
2023/10/14 06:26:18;;;;;;;11.93;2.20;;;11.90;99.90;;;;;;5052293;28;20671;-76
2023/10/14 06:28:49;;;;;;;8.60;2.17;;;11.80;99.90;;;;;;5052036;28;20267;-76
2023/10/14 06:31:18;;;;;;;13.13;2.20;;;11.80;99.90;;;;;;5045834;28;20334;-76
2023/10/14 06:33:44;;;;;;;14.83;2.50;;;11.80;99.90;;;;;;5032174;28;20202;-76
2023/10/14 06:36:16;;;;;;;11.33;2.87;;;11.80;99.90;;;;;;5030978;28;20180;-76
2023/10/14 06:38:44;;;;;;;14.17;2.53;;;11.80;99.90;;;;;;5030936;28;20229;-76
2023/10/14 06:41:16;;;;;;;9.13;2.00;;;11.80;99.90;;;;;;5034534;28;20784;-75
2023/10/14 06:43:43;;;;;;;16.07;2.50;;;11.80;99.90;;;;;;5051113;28;20203;-76
2023/10/14 06:46:11;;;;;;;10.40;2.10;;;11.80;99.90;;;;;;5050751;28;20183;-76
2023/10/14 06:48:41;;;;;;;12.33;2.53;;;11.80;99.90;;;;;;5051131;28;20198;-76
2023/10/14 06:51:09;;;;;;;9.97;2.50;;;11.80;99.90;;;;;;5052061;28;20303;-76
2023/10/14 06:53:34;;;;;;;12.33;2.17;;;11.80;99.90;;;;;;5050592;28;20203;-76
2023/10/14 06:56:01;;;;;;;12.90;2.27;;;11.80;99.90;;;;;;5051987;28;20187;-76
2023/10/14 06:58:28;;;;;;;12.13;2.30;;;11.80;99.90;;;;;;5052305;28;20172;-76
2023/10/14 07:00:57;;;;;;;10.23;2.40;;;11.80;99.90;;;;;;5051813;28;20681;-76
2023/10/14 07:03:22;;;;;;;12.13;2.17;;;11.80;99.90;;;;;;5051793;28;20187;-76
2023/10/14 07:05:56;;;;;;;12.97;2.50;;;11.80;99.90;;;;;;5051914;28;20176;-76
2023/10/14 07:08:23;;;;;;;14.37;2.27;;;11.80;99.90;;;;;;5049647;28;20204;-75
2023/10/14 07:10:50;;;;;;;13.23;2.60;;;11.70;99.90;;;;;;5050352;28;20291;-76
2023/10/14 07:13:17;;;;;;;9.90;2.40;;;11.80;99.90;;;;;;5051802;28;20682;-76
2023/10/14 07:15:44;;;;;;;9.17;2.27;;;11.80;99.90;;;;;;5051804;28;20643;-76
2023/10/14 07:18:13;;;;;;;19.27;2.60;;;11.80;99.90;;;;;;5051798;28;20554;-75
2023/10/14 07:20:39;;;;;;;9.57;2.27;;;11.80;99.90;;;;;;5050554;28;20258;-75
2023/10/14 07:23:06;;;;;;;14.33;2.27;;;11.80;99.90;;;;;;5051852;28;20195;-74
2023/10/14 07:25:34;;;;;;;11.13;2.70;;;11.80;99.90;;;;;;5050297;28;20232;-76
2023/10/14 07:28:06;;;;;;;14.77;2.37;;;11.80;99.90;;;;;;5051674;28;20700;-76
2023/10/14 07:30:35;;;;;;;10.17;2.17;;;11.90;99.90;;;;;;5050065;28;20291;-76
2023/10/14 07:33:06;;;;;;;11.70;2.53;;;11.90;99.90;;;;;;5051619;28;20274;-76
2023/10/14 07:35:32;;;;;;;17.27;3.23;;;12.00;99.90;;;;;;5050329;28;20282;-76
2023/10/14 07:37:58;;;;;;;10.30;2.50;;;12.00;99.90;;;;;;5051493;28;20180;-75
2023/10/14 07:40:24;;;;;;;17.10;3.40;;;12.00;99.90;;;;;;5050881;28;20183;-75
2023/10/14 07:42:54;;;;;;;14.80;2.63;;;12.10;99.90;;;;;;5055083;28;20623;-76
2023/10/14 07:45:29;;;;;;;12.07;2.33;;;12.00;99.90;;;;;;5053796;28;20179;-76
2023/10/14 07:47:57;;;;;;;14.57;2.60;;;12.00;99.90;;;;;;5054117;28;20261;-76
2023/10/14 07:50:23;;;;;;;21.73;2.63;;;12.00;99.90;;;;;;5053691;28;20175;-76
2023/10/14 07:52:49;;;;;;;12.00;2.70;;;12.10;99.90;;;;;;5053902;28;20201;-74
2023/10/14 07:55:15;;;;;;;10.77;2.70;;;12.10;99.90;;;;;;5053567;28;20266;-75
2023/10/14 07:57:41;;;;;;;15.87;3.07;;;12.10;99.90;;;;;;5054828;28;20182;-76
2023/10/14 08:00:14;;;;;;;15.93;2.63;;;12.10;99.90;;;;;;5053429;28;20584;-76
2023/10/14 08:02:41;;;;;;;16.57;2.63;;;12.10;99.90;;;;;;5055005;28;20188;-76
2023/10/14 08:05:07;;;;;;;12.83;2.90;;;12.10;99.90;;;;;;5053411;28;20218;-76
2023/10/14 08:07:40;;;;;;;11.17;2.47;;;12.20;99.90;;;;;;5053338;28;20175;-76
2023/10/14 08:10:19;;;;;;;12.07;2.27;;;12.20;99.90;;;;;;5053319;28;20175;-76
2023/10/14 08:12:52;;;;;;;15.43;2.77;;;12.30;99.90;;;;;;5054592;28;20224;-75
2023/10/14 08:15:18;;;;;;;10.00;2.33;;;12.30;99.90;;;;;;5054573;28;20166;-75
2023/10/14 08:17:44;;;;;;;13.03;2.93;;;12.30;99.90;;;;;;5054501;28;20172;-75
2023/10/14 08:20:13;;;;;;;14.47;2.90;;;12.40;99.90;;;;;;5053135;28;20207;-76
2023/10/14 08:22:45;;;;;;;10.83;2.47;;;12.40;99.90;;;;;;5054295;28;20265;-76
2023/10/14 08:25:18;;;;;;;13.50;2.53;;;12.50;99.90;;;;;;5053063;28;20200;-76
2023/10/14 08:27:45;;;;;;;10.93;2.27;;;12.60;99.90;;;;;;5053000;28;20167;-75
2023/10/14 08:30:11;;;;;;;14.10;2.90;;;12.60;99.90;;;;;;5054141;28;20195;-76
2023/10/14 08:32:41;;;;;;;12.13;2.80;;;12.70;99.90;;;;;;5052855;28;20220;-75
2023/10/14 08:35:17;;;;;;;14.97;3.20;;;12.70;99.90;;;;;;5053092;28;20229;-76
2023/10/14 08:37:48;;;;;;;18.27;2.60;;;12.70;99.90;;;;;;5052823;28;20642;-76
2023/10/14 08:40:16;;;;;;;16.70;2.93;;;12.70;99.90;;;;;;5054055;28;20170;-76
2023/10/14 08:42:49;;;;;;;9.60;2.47;;;12.70;99.90;;;;;;5054048;28;20685;-76
2023/10/14 08:45:20;;;;;;;15.03;2.30;;;12.70;99.90;;;;;;5052741;28;20643;-75
2023/10/14 08:47:50;;;;;;;11.97;2.30;;;12.60;99.90;;;;;;5054177;28;20530;-76
2023/10/14 08:50:18;;;;;;;10.07;2.30;;;12.70;99.90;;;;;;5052744;28;20263;-76
2023/10/14 08:52:45;;;;;;;14.63;2.87;;;12.70;99.90;;;;;;5053696;28;20517;-75
2023/10/14 08:55:19;;;;;;;10.60;2.40;;;12.80;99.90;;;;;;5052410;28;20183;-76
2023/10/14 08:57:45;;;;;;;15.73;2.40;;;12.90;99.90;;;;;;5052436;28;20179;-76
2023/10/14 09:00:19;;;;;;;18.20;2.47;;;12.90;99.90;;;;;;5053510;28;20260;-76
2023/10/14 09:02:46;;;;;;;16.90;3.17;;;12.90;99.90;;;;;;5053858;28;20213;-75
2023/10/14 09:05:16;;;;;;;15.40;2.50;;;13.00;99.90;;;;;;5054085;28;20172;-76
2023/10/14 09:07:43;;;;;;;14.07;2.20;;;13.10;99.90;;;;;;5052267;28;20187;-76
2023/10/14 09:10:09;;;;;;;13.00;2.37;;;13.10;99.90;;;;;;5052034;28;20528;-76
2023/10/14 09:12:35;;;;;;;11.87;2.43;;;13.10;99.90;;;;;;5053110;28;20198;-76
2023/10/14 09:15:00;;;;;;;13.37;2.70;;;13.20;99.90;;;;;;5053727;28;20254;-75
2023/10/14 09:17:28;;;;;;;7.93;2.00;;;13.30;99.90;;;;;;5053196;28;20593;-76
2023/10/14 09:19:54;;;;;;;10.30;2.20;;;13.40;99.90;;;;;;5053638;28;20172;-76
2023/10/14 09:22:33;;;;;;;11.03;2.27;;;13.40;99.90;;;;;;5052911;28;20317;-75
2023/10/14 09:24:59;;;;;;;8.97;2.60;;;13.50;99.90;;;;;;5053004;28;20143;-75
2023/10/14 09:27:30;;;;;;;14.53;3.30;;;13.50;99.90;;;;;;5052967;28;20222;-76
2023/10/14 09:29:57;;;;;;;10.97;2.30;;;13.50;12.50;;;;;;5053118;28;20180;-76
2023/10/14 09:32:23;;;;;;;18.93;3.17;;;13.50;1.00;;;;;;5051516;28;20290;-76
2023/10/14 09:34:51;;;;;;;11.37;2.60;;;13.50;99.90;;;;;;5052894;28;20218;-76
2023/10/14 09:37:17;;;;;;;11.73;2.97;;;13.60;1.00;;;;;;5051479;28;20272;-76
2023/10/14 09:39:48;;;;;;;10.40;2.57;;;13.60;1.00;;;;;;5053065;28;20218;-76
2023/10/14 09:42:15;;;;;;;13.83;2.77;;;13.60;99.90;;;;;;5052651;28;20199;-76
2023/10/14 09:44:43;;;;;;;10.30;2.77;;;13.60;1.00;;;;;;5052930;28;20168;-76
2023/10/14 09:47:22;;;;;;;12.03;2.80;;;13.70;1.00;;;;;;5051710;28;20210;-74
2023/10/14 09:49:48;;;;;;;13.13;2.50;;;13.80;6.50;;;;;;5052693;28;20207;-76
2023/10/14 09:52:16;;;;;;;12.90;2.20;;;13.70;99.90;;;;;;5052509;28;20215;-76
2023/10/14 09:54:42;;;;;;;10.83;3.17;;;13.80;1.00;;;;;;5052793;28;20179;-76
2023/10/14 09:57:12;;;;;;;12.83;3.17;;;13.80;43.50;;;;;;5052531;28;20172;-76
2023/10/14 09:59:41;;;;;;;12.90;2.70;;;13.80;1.00;;;;;;5052481;28;20163;-76
2023/10/14 10:02:09;;;;;;;12.30;2.63;;;13.80;99.70;;;;;;5050954;28;20214;-76
2023/10/14 10:04:39;;;;;;;10.77;2.50;;;13.80;86.40;;;;;;5052146;28;20265;-75
2023/10/14 10:07:19;;;;;;;13.27;2.30;;;13.80;99.90;;;;;;5051051;28;20172;-76
2023/10/14 10:10:01;;;;;;;18.23;2.60;;;13.80;1.00;;;;;;5052291;28;20155;-76
2023/10/14 10:12:30;;;;;;;9.03;2.17;;;13.90;99.90;;;;;;5050904;28;20243;-76
2023/10/14 10:15:03;;;;;;;9.07;2.10;;;14.00;1.00;;;;;;5051362;28;20179;-76
2023/10/14 10:17:30;;;;;;;12.93;2.20;;;14.00;99.90;;;;;;5050791;28;20206;-76
2023/10/14 10:20:19;;;;;;;14.53;2.27;;;14.10;1.00;;;;;;5052384;28;20168;-75
2023/10/14 10:22:50;;;;;;;14.13;2.83;;;14.10;99.90;;;;;;5052278;28;20659;-75
2023/10/14 10:25:17;;;;;;;11.60;3.30;;;14.20;1.00;;;;;;5052172;28;20178;-77
2023/10/14 10:27:44;;;;;;;22.43;3.63;;;14.10;99.90;;;;;;5052115;28;20255;-76
2023/10/14 10:30:13;;;;;;;14.50;3.53;;;14.20;1.00;;;;;;5051921;28;20192;-76
2023/10/14 10:32:40;;;;;;;12.30;2.60;;;14.20;99.90;;;;;;5050625;28;20293;-74
2023/10/14 10:35:06;;;;;;;12.70;3.23;;;14.10;99.90;;;;;;5052308;28;20173;-75
2023/10/14 10:37:57;;;;;;;12.63;3.30;;;14.00;99.90;;;;;;5051965;28;20175;-76
2023/10/14 10:40:27;;;;;;;17.37;3.87;;;14.00;99.90;;;;;;5045906;28;20619;-76
2023/10/14 10:43:03;;;;;;;14.53;3.93;;;13.90;99.90;;;;;;5051796;28;20194;-76
2023/10/14 10:45:33;;;;;;;15.80;3.60;;;14.00;99.90;;;;;;5052083;28;20209;-75
2023/10/14 10:48:03;;;;;;;19.27;3.20;;;14.10;99.90;;;;;;5050554;28;20172;-75
2023/10/14 10:50:40;;;;;;;9.60;2.63;;;14.10;12.40;;;;;;5052015;28;20167;-76
2023/10/14 10:53:08;;;;;;;10.30;2.37;;;14.20;99.90;;;;;;5052102;28;20241;-75
2023/10/14 10:55:43;;;;;;;17.27;2.43;;;14.20;1.00;;;;;;5050485;28;20194;-76
2023/10/14 10:58:13;;;;;;;8.73;2.37;;;14.20;1.00;;;;;;5050458;28;20167;-76
2023/10/14 11:00:47;;;;;;;11.47;2.60;;;14.30;1.00;;;;;;5051772;28;20195;-76
2023/10/14 11:03:14;;;;;;;11.80;2.20;;;14.30;1.00;;;;;;5051997;28;20604;-76
2023/10/14 11:05:41;;;;;;;16.40;3.67;;;14.30;1.00;;;;;;5052160;28;20665;-75
2023/10/14 11:08:07;;;;;;;10.60;3.27;;;14.40;99.90;;;;;;5051947;28;20191;-75
2023/10/14 11:10:38;;;;;;;9.07;2.20;;;14.40;99.90;;;;;;5051779;28;20270;-76
2023/10/14 11:13:05;;;;;;;13.27;3.33;;;14.30;83.30;;;;;;5050759;28;20602;-76
2023/10/14 11:15:34;;;;;;;11.03;2.60;;;14.20;99.90;;;;;;5052235;28;20627;-76
2023/10/14 11:18:00;;;;;;;11.03;2.57;;;14.20;99.90;;;;;;5055508;28;20167;-76
2023/10/14 11:20:31;;;;;;;11.63;2.50;;;14.10;1.00;;;;;;5054123;28;20168;-76
2023/10/14 11:22:58;;;;;;;9.70;2.40;;;14.10;99.90;;;;;;5054805;28;20203;-76
2023/10/14 11:25:23;;;;;;;12.03;2.33;;;14.20;99.90;;;;;;5055587;28;20176;-76
2023/10/14 11:27:49;;;;;;;12.17;3.00;;;14.20;99.90;;;;;;5053902;28;20267;-76
2023/10/14 11:30:16;;;;;;;12.13;2.97;;;14.20;99.90;;;;;;5053818;28;20187;-76
2023/10/14 11:32:49;;;;;;;9.80;2.90;;;14.10;99.90;;;;;;5055155;28;20679;-76
2023/10/14 11:35:21;;;;;;;10.63;2.03;;;14.00;99.90;;;;;;5055118;28;20631;-76
2023/10/14 11:37:55;;;;;;;12.20;2.67;;;14.00;99.90;;;;;;5053931;28;20168;-76
2023/10/14 11:40:25;;;;;;;13.67;3.23;;;13.90;61.60;;;;;;5053719;28;20188;-76
2023/10/14 11:42:54;;;;;;;12.23;2.53;;;13.90;1.00;;;;;;5053702;28;20206;-76
2023/10/14 11:45:20;;;;;;;11.60;2.63;;;13.90;24.60;;;;;;5055081;28;20175;-76
2023/10/14 11:47:46;;;;;;;12.30;2.47;;;13.90;99.90;;;;;;5053680;28;20171;-76
2023/10/14 11:50:12;;;;;;;12.60;3.47;;;13.80;28.60;;;;;;5054891;28;20179;-75
2023/10/14 11:52:42;;;;;;;10.90;3.83;;;13.80;1.00;;;;;;5053505;28;20203;-76
2023/10/14 11:55:12;;;;;;;9.07;3.17;;;13.80;1.00;;;;;;5054767;28;20536;-75
2023/10/14 11:57:37;;;;;;;9.83;3.00;;;14.10;1.00;;;;;;5054850;28;20593;-76
2023/10/14 12:00:10;;;;;;;6.53;2.20;;;14.10;1.00;;;;;;5054803;28;20172;-75
2023/10/14 12:02:35;;;;;;;7.53;1.63;;;14.20;1.00;;;;;;5054625;28;20208;-76
2023/10/14 12:05:03;;;;;;;9.43;2.47;;;14.30;99.90;;;;;;5054919;28;20174;-76
2023/10/14 12:07:32;;;;;;;6.70;1.67;;;14.40;99.90;;;;;;5054859;28;20187;-76
2023/10/14 12:09:59;;;;;;;8.03;1.90;;;14.40;99.90;;;;;;5054618;28;20164;-75
2023/10/14 12:12:25;;;;;;;9.20;2.10;;;14.40;99.90;;;;;;5054678;28;20598;-76
2023/10/14 12:14:50;;;;;;;9.63;1.73;;;14.40;99.90;;;;;;5053133;28;20179;-76
2023/10/14 12:17:17;;;;;;;6.03;1.73;;;14.50;99.90;;;;;;5054395;28;20171;-76
2023/10/14 12:19:43;;;;;;;7.20;1.83;;;14.60;99.90;;;;;;5053009;28;20176;-74
2023/10/14 12:22:09;;;;;;;10.17;2.13;;;14.70;99.90;;;;;;5054192;28;20200;-76
2023/10/14 12:24:35;;;;;;;9.13;1.90;;;14.70;97.70;;;;;;5054257;28;20182;-76
2023/10/14 12:27:01;;;;;;;10.87;2.00;;;14.70;99.90;;;;;;5052764;28;20176;-76
2023/10/14 12:29:27;;;;;;;7.33;1.93;;;14.70;99.90;;;;;;5054048;28;20497;-76
2023/10/14 12:31:58;;;;;;;9.30;1.83;;;14.70;99.90;;;;;;5052771;28;20176;-77
2023/10/14 12:34:24;;;;;;;9.20;2.63;;;14.70;99.90;;;;;;5054156;28;20152;-76
2023/10/14 12:36:52;;;;;;;10.73;3.07;;;14.60;99.90;;;;;;5054127;28;20218;-75
2023/10/14 12:39:19;;;;;;;10.63;2.57;;;14.60;99.90;;;;;;5052694;28;20201;-76
2023/10/14 12:41:47;;;;;;;6.13;2.00;;;14.70;99.90;;;;;;5052479;28;20209;-76
2023/10/14 12:44:13;;;;;;;8.97;1.80;;;14.80;99.90;;;;;;5054169;28;20263;-76
2023/10/14 12:46:45;;;;;;;6.77;1.70;;;14.90;71.30;;;;;;5053789;28;20259;-76
2023/10/14 12:49:11;;;;;;;8.27;2.03;;;14.90;1.00;;;;;;5053925;28;20156;-76
2023/10/14 12:51:43;;;;;;;7.43;2.03;;;14.90;1.00;;;;;;5053086;28;20223;-76
2023/10/14 12:54:16;;;;;;;9.77;1.87;;;15.00;1.00;;;;;;5052449;28;20164;-76
2023/10/14 12:56:42;;;;;;;8.50;1.60;;;15.10;1.00;;;;;;5052265;28;20179;-75
2023/10/14 12:59:12;;;;;;;9.60;2.13;;;15.10;1.00;;;;;;5052259;28;20179;-76
2023/10/14 13:01:39;;;;;;;7.07;1.87;;;15.10;15.70;;;;;;5053810;28;20199;-76
2023/10/14 13:04:12;;;;;;;10.30;1.80;;;15.20;46.20;;;;;;5053483;28;20191;-76
2023/10/14 13:06:44;;;;;;;9.70;2.00;;;15.30;30.80;;;;;;5054058;28;20149;-76
2023/10/14 13:09:11;;;;;;;9.13;2.07;;;15.30;1.00;;;;;;5052224;28;20196;-76
2023/10/14 13:11:39;;;;;;;5.77;1.70;;;15.20;1.00;;;;;;5053337;28;20584;-76
2023/10/14 13:14:05;;;;;;;9.87;2.17;;;15.30;99.90;;;;;;5051876;28;20200;-76
2023/10/14 13:16:31;;;;;;;8.13;1.90;;;15.30;93.60;;;;;;5053398;28;20180;-75
2023/10/14 13:18:57;;;;;;;10.80;1.97;;;15.20;13.50;;;;;;5053429;28;20581;-76